Brewster, Minnesota
Current Conditions -  °F | °C
As of 11:35 AM on Wednesday 26 Nov 2014 (Local Time) from KOTG Reporting Station
Overcast Overcast  
Wind Chill:   Ceiling: 1100
Heat Index: 21°   Visibility: 4mi
Dew Point: 18°   Wind: 24mph
Humidity: 86%   Direction: 360°N
Pressure: 30.14"   Gusts: 29mph
Location:  43.7°N, 95.47°W
Report Text: KOTG 261735Z AUTO 36021G25KT 4SM BKN011 OVC035 M06/M08 A3014 RMK AO1
Loading
Personal Weather Stations






























Interactive Weather Map New forecast layout! Learn more

10-Day Weather Forecast

Advertisements
Track Severe Weather on mobile